Time;durP1;ratioP1;P1;durP2;ratioP2;P2;SDS_P1;SDS_P2;PMS_P1;PMS_P2;Temp;Humidity;BMP_temperature;BMP_pressure;BME280_temperature;BME280_humidity;BME280_pressure;Samples;Min_cycle;Max_cycle;Signal;HPM_P1;HPM_P2
2021/06/11 00:02:24;;;;;;;4.82;4.43;;;;;;;20.20;66.12;95896.34;5020686;28;20209;-84
2021/06/11 00:04:50;;;;;;;4.80;4.40;;;;;;;20.17;66.19;95890.78;5020688;28;20539;-86
2021/06/11 00:07:16;;;;;;;3.90;3.67;;;;;;;20.14;66.33;95894.63;5023104;28;20221;-84
2021/06/11 00:09:42;;;;;;;4.03;3.72;;;;;;;20.12;66.61;95894.06;5024008;28;20227;-85
2021/06/11 00:12:09;;;;;;;4.45;4.15;;;;;;;20.16;66.40;95894.41;5023230;28;20202;-85
2021/06/11 00:14:35;;;;;;;4.63;4.22;;;;;;;20.13;66.94;95894.84;5023398;28;20202;-84
2021/06/11 00:17:01;;;;;;;4.30;4.00;;;;;;;20.10;66.97;95901.34;5024421;28;20226;-85
2021/06/11 00:19:28;;;;;;;4.43;4.03;;;;;;;20.13;66.89;95893.03;5024022;28;20253;-85
2021/06/11 00:21:54;;;;;;;4.38;4.03;;;;;;;20.16;66.69;95899.63;5023719;28;20206;-85
2021/06/11 00:24:20;;;;;;;4.47;4.07;;;;;;;20.05;67.41;95897.81;5023553;28;20191;-86
2021/06/11 00:26:46;;;;;;;4.80;4.40;;;;;;;20.00;67.04;95899.31;5024051;28;20690;-85
2021/06/11 00:29:12;;;;;;;4.65;4.25;;;;;;;19.99;67.36;95889.06;5022988;28;20214;-85
2021/06/11 00:31:40;;;;;;;4.53;4.13;;;;;;;19.98;67.52;95892.72;5022788;28;20207;-84
2021/06/11 00:34:06;;;;;;;4.35;4.05;;;;;;;19.96;67.90;95894.75;5021747;28;20237;-84
2021/06/11 00:36:33;;;;;;;5.22;4.20;;;;;;;19.90;68.24;95893.84;5021891;28;20222;-84
2021/06/11 00:38:59;;;;;;;4.43;4.03;;;;;;;19.92;67.81;95901.44;5022567;28;20205;-86
2021/06/11 00:41:25;;;;;;;4.57;4.18;;;;;;;19.98;67.96;95903.16;5022341;28;20191;-85
2021/06/11 00:43:51;;;;;;;4.30;3.90;;;;;;;19.93;68.13;95900.44;5022854;28;20297;-84
2021/06/11 00:46:17;;;;;;;4.55;4.15;;;;;;;19.90;68.67;95904.28;5022270;28;20214;-85
2021/06/11 00:48:43;;;;;;;4.20;3.90;;;;;;;19.93;68.07;95897.81;5021769;28;20241;-84
2021/06/11 00:51:09;;;;;;;4.40;4.00;;;;;;;19.88;68.49;95905.53;5020853;28;20207;-84
2021/06/11 00:53:37;;;;;;;4.30;4.00;;;;;;;19.86;68.19;95899.72;5021132;28;20230;-85
2021/06/11 00:56:03;;;;;;;4.50;4.05;;;;;;;19.88;68.22;95895.06;5020848;28;20210;-84
2021/06/11 00:58:30;;;;;;;4.50;4.20;;;;;;;19.76;69.53;95894.28;5021662;28;20223;-84
2021/06/11 01:00:56;;;;;;;4.72;4.32;;;;;;;19.58;70.36;95895.97;5020810;28;20227;-84
2021/06/11 01:03:25;;;;;;;4.55;4.25;;;;;;;19.62;70.45;95896.31;5021526;28;20275;-84
2021/06/11 01:05:53;;;;;;;4.22;3.90;;;;;;;19.65;69.92;95903.69;5021243;28;20207;-85
2021/06/11 01:08:20;;;;;;;4.10;3.80;;;;;;;19.75;69.35;95897.91;5021208;28;20211;-85
2021/06/11 01:10:48;;;;;;;4.20;3.90;;;;;;;19.73;70.12;95889.50;5020348;28;20226;-85
2021/06/11 01:13:16;;;;;;;4.30;4.00;;;;;;;19.77;69.64;95888.84;5020705;28;20257;-85
2021/06/11 01:15:42;;;;;;;4.53;4.10;;;;;;;19.78;69.75;95894.84;5020377;28;20211;-84
2021/06/11 01:18:10;;;;;;;4.53;4.18;;;;;;;19.78;69.65;95893.03;5020110;28;20233;-84
2021/06/11 01:20:36;;;;;;;6.18;4.15;;;;;;;19.78;69.95;95890.44;5019801;28;20260;-86
2021/06/11 01:23:28;;;;;;;4.35;4.00;;;;;;;19.86;69.76;95897.13;5020958;28;20205;-85
2021/06/11 01:26:03;;;;;;;4.10;3.75;;;;;;;19.90;69.57;95890.41;5020212;28;20290;-85
2021/06/11 01:28:31;;;;;;;4.13;3.83;;;;;;;19.93;69.18;95889.97;5021136;28;20195;-85
2021/06/11 01:30:59;;;;;;;4.45;4.10;;;;;;;19.90;69.03;95885.19;5019062;28;20219;-84
2021/06/11 01:33:30;;;;;;;4.45;4.03;;;;;;;19.87;68.86;95883.03;5025496;28;20222;-84
2021/06/11 01:36:00;;;;;;;4.65;4.35;;;;;;;19.78;69.75;95882.59;5023642;28;20850;-84
2021/06/11 01:38:35;;;;;;;4.20;3.90;;;;;;;19.80;69.91;95877.94;5019626;28;20214;-85
2021/06/11 01:41:04;;;;;;;4.32;4.03;;;;;;;19.83;69.33;95893.13;5019184;28;20223;-84
2021/06/11 01:43:34;;;;;;;4.70;3.80;;;;;;;19.86;69.57;95878.81;5019762;28;20846;-86
2021/06/11 01:46:00;;;;;;;5.15;4.05;;;;;;;19.84;69.58;95886.09;5019709;28;20206;-86
2021/06/11 01:48:27;;;;;;;4.80;4.38;;;;;;;19.86;69.38;95876.22;5019848;28;20211;-85
2021/06/11 01:50:54;;;;;;;4.78;4.25;;;;;;;19.85;69.89;95877.22;5018862;28;20231;-85
2021/06/11 01:53:22;;;;;;;4.50;4.10;;;;;;;19.88;69.81;95879.41;5018269;28;20280;-85
2021/06/11 01:55:50;;;;;;;4.35;4.05;;;;;;;19.92;69.65;95877.94;5019354;28;20249;-85
2021/06/11 01:58:17;;;;;;;4.20;3.90;;;;;;;20.00;68.96;95867.13;5019607;28;20229;-84
2021/06/11 02:00:45;;;;;;;4.82;4.43;;;;;;;20.04;68.88;95865.63;5018499;28;20223;-85
2021/06/11 02:03:16;;;;;;;4.95;4.40;;;;;;;20.02;68.78;95867.69;5019239;28;20203;-85
2021/06/11 02:05:42;;;;;;;4.40;4.00;;;;;;;20.03;68.55;95871.88;5018196;28;20202;-85
2021/06/11 02:08:09;;;;;;;4.40;4.05;;;;;;;19.95;69.41;95867.03;5018518;28;20195;-85
2021/06/11 02:10:35;;;;;;;4.13;3.72;;;;;;;19.99;68.89;95865.56;5019098;28;20218;-86
2021/06/11 02:13:02;;;;;;;4.75;4.35;;;;;;;20.01;69.33;95861.66;5018519;28;20207;-84
2021/06/11 02:15:28;;;;;;;4.18;3.88;;;;;;;20.01;69.13;95860.88;5018787;28;20198;-83
2021/06/11 02:17:57;;;;;;;4.90;4.50;;;;;;;19.98;69.30;95866.56;5018888;28;20227;-86
2021/06/11 02:20:25;;;;;;;4.72;4.32;;;;;;;19.82;70.20;95862.03;5014604;28;20837;-85
2021/06/11 02:22:51;;;;;;;4.55;3.90;;;;;;;19.76;70.40;95858.50;5018152;28;20203;-84
2021/06/11 02:25:20;;;;;;;4.55;4.18;;;;;;;19.78;69.83;95861.69;5018563;28;20201;-84
2021/06/11 02:27:47;;;;;;;4.45;4.15;;;;;;;19.66;70.78;95871.31;5017674;28;20199;-84
2021/06/11 02:30:18;;;;;;;4.60;4.20;;;;;;;19.64;70.73;95866.31;5017831;28;20218;-86
2021/06/11 02:32:44;;;;;;;4.72;4.40;;;;;;;19.63;70.31;95862.09;5018109;28;20237;-84
2021/06/11 02:35:15;;;;;;;4.53;4.20;;;;;;;19.63;70.87;95867.34;5018710;28;20207;-84
2021/06/11 02:37:41;;;;;;;4.90;4.50;;;;;;;19.65;70.39;95859.28;5018068;28;20223;-85
2021/06/11 02:40:09;;;;;;;4.20;3.88;;;;;;;19.69;70.02;95857.00;5018008;28;20222;-84
2021/06/11 02:42:35;;;;;;;5.00;4.60;;;;;;;19.71;69.56;95857.59;5017973;28;20210;-84
2021/06/11 02:45:10;;;;;;;4.65;4.35;;;;;;;19.65;69.96;95867.13;5018376;28;20210;-84
2021/06/11 02:47:42;;;;;;;4.88;4.47;;;;;;;19.62;70.51;95865.78;5018096;28;20259;-84
2021/06/11 02:50:14;;;;;;;4.82;4.43;;;;;;;19.58;70.80;95864.63;5018103;28;20314;-84
2021/06/11 02:52:45;;;;;;;4.85;4.45;;;;;;;19.59;70.97;95865.41;5017878;28;20199;-84
2021/06/11 02:55:15;;;;;;;5.03;4.72;;;;;;;19.56;71.31;95866.66;5018867;28;20222;-85
2021/06/11 02:57:48;;;;;;;4.82;4.53;;;;;;;19.63;70.86;95874.38;5014545;28;20215;-84
2021/06/11 03:00:15;;;;;;;4.75;4.45;;;;;;;19.62;70.78;95871.00;5016498;28;20257;-84
2021/06/11 03:02:46;;;;;;;4.50;4.20;;;;;;;19.60;70.85;95872.25;5017606;28;20194;-85
2021/06/11 03:05:16;;;;;;;4.80;4.40;;;;;;;19.59;70.50;95871.44;5018701;28;20214;-84
2021/06/11 03:07:45;;;;;;;5.30;4.80;;;;;;;19.54;70.57;95867.91;5004401;28;20242;-87
2021/06/11 03:10:13;;;;;;;5.03;4.63;;;;;;;19.55;70.74;95874.72;4998876;28;20231;-84
2021/06/11 03:12:40;;;;;;;4.70;4.40;;;;;;;19.54;70.82;95875.75;4998164;28;20214;-86
2021/06/11 03:15:08;;;;;;;4.60;4.20;;;;;;;19.55;71.00;95880.75;5017321;28;20199;-86
2021/06/11 03:17:42;;;;;;;5.15;4.55;;;;;;;19.60;70.99;95883.47;5018523;28;20266;-84
2021/06/11 03:20:15;;;;;;;4.45;4.15;;;;;;;19.58;71.20;95885.53;5019072;28;20626;-86
2021/06/11 03:22:48;;;;;;;4.78;4.28;;;;;;;19.57;71.37;95883.94;5017484;28;20203;-84
2021/06/11 03:25:21;;;;;;;4.53;4.22;;;;;;;19.58;71.54;95888.13;5018200;28;20207;-85
2021/06/11 03:27:52;;;;;;;8.07;4.85;;;;;;;19.57;71.85;95886.53;5017713;28;20474;-85
2021/06/11 03:30:20;;;;;;;5.13;4.60;;;;;;;19.55;71.73;95882.56;5017459;28;20215;-84
2021/06/11 03:32:48;;;;;;;5.20;4.72;;;;;;;19.47;71.88;95882.84;5016652;28;20672;-84
2021/06/11 03:35:21;;;;;;;5.18;4.78;;;;;;;19.48;72.20;95893.06;5017966;28;20208;-84
2021/06/11 03:37:49;;;;;;;5.35;4.95;;;;;;;19.47;71.98;95890.69;5017329;28;20235;-85
2021/06/11 03:40:21;;;;;;;4.85;4.40;;;;;;;19.47;72.73;95898.50;5016285;28;20917;-85
2021/06/11 03:42:48;;;;;;;4.93;4.53;;;;;;;19.49;72.34;95901.69;5010658;28;20651;-83
2021/06/11 03:45:14;;;;;;;5.65;4.70;;;;;;;19.50;71.87;95893.69;5011801;28;20207;-84
2021/06/11 03:47:42;;;;;;;5.18;4.72;;;;;;;19.51;72.08;95897.09;5011566;28;20199;-83
2021/06/11 03:50:10;;;;;;;5.43;5.00;;;;;;;19.41;72.66;95900.22;5012297;28;20230;-83
2021/06/11 03:52:39;;;;;;;5.70;5.05;;;;;;;19.34;73.27;95891.69;5011966;28;20203;-84
2021/06/11 03:55:12;;;;;;;7.07;5.25;;;;;;;19.37;73.04;95896.47;5020293;28;20284;-84
2021/06/11 03:57:41;;;;;;;7.03;4.80;;;;;;;19.40;72.73;95901.25;5031515;28;20218;-84
2021/06/11 04:00:08;;;;;;;7.30;5.20;;;;;;;19.35;73.19;95897.69;5032034;28;20217;-85
2021/06/11 04:02:35;;;;;;;5.80;4.95;;;;;;;19.37;72.98;95893.84;5031673;28;20202;-84
2021/06/11 04:05:02;;;;;;;5.05;4.65;;;;;;;19.39;73.11;95896.25;5031897;28;20203;-85
2021/06/11 04:07:34;;;;;;;4.82;4.53;;;;;;;19.45;72.79;95898.72;5017885;28;20195;-84
2021/06/11 04:10:06;;;;;;;6.18;4.93;;;;;;;19.56;71.93;95903.22;5012114;28;20230;-85
2021/06/11 04:12:37;;;;;;;5.03;4.57;;;;;;;19.64;71.67;95907.31;5012082;28;20199;-83
2021/06/11 04:15:05;;;;;;;4.97;4.63;;;;;;;19.66;71.04;95906.06;5006138;28;20199;-85
2021/06/11 04:17:38;;;;;;;5.65;5.13;;;;;;;19.65;70.86;95903.69;5015272;28;20711;-85
2021/06/11 04:20:06;;;;;;;5.03;4.63;;;;;;;19.69;70.74;95912.66;5011752;28;20230;-84
2021/06/11 04:22:35;;;;;;;4.82;4.47;;;;;;;19.72;70.88;95909.63;5011516;28;20210;-84
2021/06/11 04:25:06;;;;;;;5.22;4.82;;;;;;;19.66;70.88;95907.88;5012295;28;20303;-84
2021/06/11 04:27:35;;;;;;;5.15;4.75;;;;;;;19.72;70.65;95909.63;5012362;28;20222;-84
2021/06/11 04:30:03;;;;;;;5.07;4.68;;;;;;;19.78;70.66;95913.16;5011480;28;20223;-84
2021/06/11 04:32:29;;;;;;;4.97;4.50;;;;;;;19.73;71.02;95921.66;5011194;28;20249;-85
2021/06/11 04:34:56;;;;;;;4.93;4.53;;;;;;;19.75;70.78;95919.63;5011848;28;20207;-84
2021/06/11 04:37:22;;;;;;;4.90;4.50;;;;;;;19.77;70.70;95924.63;5016413;28;20219;-84
2021/06/11 04:39:48;;;;;;;5.22;4.50;;;;;;;19.77;70.55;95917.56;5025725;28;20225;-84
2021/06/11 04:42:16;;;;;;;4.90;4.50;;;;;;;19.77;70.49;95917.56;5024538;28;21141;-85
2021/06/11 04:44:42;;;;;;;7.57;4.30;;;;;;;19.80;70.59;95917.13;5002981;28;20199;-87
2021/06/11 04:47:08;;;;;;;5.10;4.70;;;;;;;19.86;71.05;95918.03;5001760;28;20211;-86
2021/06/11 04:49:34;;;;;;;4.80;4.40;;;;;;;19.95;70.18;95919.28;5006995;28;20223;-85
2021/06/11 04:52:00;;;;;;;4.63;4.30;;;;;;;20.08;69.69;95928.72;5007559;28;20253;-86
2021/06/11 04:54:26;;;;;;;7.68;6.95;;;;;;;20.11;69.04;95923.03;5016925;28;20203;-86
2021/06/11 04:56:53;;;;;;;22.08;19.92;;;;;;;20.19;68.79;95927.94;5012245;28;20214;-86
2021/06/11 04:59:20;;;;;;;9.13;7.03;;;;;;;20.23;68.35;95929.84;5011994;28;20264;-86
2021/06/11 05:01:50;;;;;;;5.22;4.82;;;;;;;20.24;68.17;95928.03;5014309;28;20205;-87
2021/06/11 05:04:16;;;;;;;5.47;5.00;;;;;;;20.18;68.42;95926.34;5014657;28;20266;-86
2021/06/11 05:06:42;;;;;;;5.80;4.90;;;;;;;20.16;68.15;95923.97;5013512;28;20206;-89
2021/06/11 05:09:08;;;;;;;4.70;4.32;;;;;;;20.27;67.72;95931.00;5012119;28;20250;-87
2021/06/11 05:11:34;;;;;;;5.20;4.80;;;;;;;20.34;67.38;95933.50;5009024;28;20732;-88
2021/06/11 05:14:00;;;;;;;5.53;4.68;;;;;;;20.40;66.91;95937.81;5006079;28;20207;-85
2021/06/11 05:16:27;;;;;;;5.18;4.68;;;;;;;20.36;66.57;95939.31;5012279;28;20196;-86
2021/06/11 05:18:54;;;;;;;6.20;4.82;;;;;;;20.44;67.19;95944.19;5005223;28;20223;-87
2021/06/11 05:21:20;;;;;;;5.28;4.78;;;;;;;20.33;67.42;95931.91;5011205;28;20209;-87
2021/06/11 05:23:46;;;;;;;4.82;4.40;;;;;;;20.39;67.37;95938.88;5012413;28;20191;-87
2021/06/11 05:26:12;;;;;;;5.80;5.30;;;;;;;20.42;67.57;95941.00;5012065;28;20207;-86
2021/06/11 05:28:38;;;;;;;5.47;4.97;;;;;;;20.45;67.61;95939.75;5011849;28;20289;-87
2021/06/11 05:31:06;;;;;;;5.75;5.25;;;;;;;20.43;66.85;95945.22;5010853;28;20227;-89
2021/06/11 05:33:33;;;;;;;5.53;5.00;;;;;;;20.47;67.01;95940.34;5011561;28;20262;-88
2021/06/11 05:35:59;;;;;;;5.95;5.45;;;;;;;20.47;67.12;95948.19;5013590;28;20286;-87
2021/06/11 05:38:26;;;;;;;5.85;5.30;;;;;;;20.47;67.17;95942.94;5012880;28;20226;-88
2021/06/11 05:40:53;;;;;;;5.93;5.43;;;;;;;20.48;66.92;95939.31;5012903;28;20226;-88
2021/06/11 05:43:22;;;;;;;6.53;5.90;;;;;;;20.49;66.98;95940.91;5014444;28;20205;-88
2021/06/11 05:45:48;;;;;;;6.43;5.75;;;;;;;20.54;66.47;95938.41;5012437;28;20203;-87
2021/06/11 05:48:14;;;;;;;6.18;5.65;;;;;;;20.56;67.31;95945.00;5007179;28;20249;-88
2021/06/11 05:50:41;;;;;;;7.18;6.32;;;;;;;20.54;66.74;95941.81;5012641;28;20250;-88
2021/06/11 05:53:08;;;;;;;6.57;5.97;;;;;;;20.59;66.31;95946.38;5011986;28;20207;-88
2021/06/11 05:55:34;;;;;;;8.10;6.18;;;;;;;20.54;66.56;95947.03;5016641;28;20326;-88
2021/06/11 05:58:00;;;;;;;6.40;5.90;;;;;;;20.57;66.15;95946.59;5015798;28;20215;-88
2021/06/11 06:00:26;;;;;;;6.57;6.07;;;;;;;20.68;65.91;95947.59;5012851;28;20290;-88
2021/06/11 06:02:52;;;;;;;6.90;6.20;;;;;;;20.66;65.47;95950.44;5012097;28;20858;-86
2021/06/11 06:05:18;;;;;;;6.30;5.80;;;;;;;20.79;65.41;95953.81;5012181;28;20207;-86
2021/06/11 06:07:46;;;;;;;6.45;5.95;;;;;;;20.76;64.66;95951.69;5012182;28;20191;-87
2021/06/11 06:10:13;;;;;;;6.68;6.18;;;;;;;20.79;64.44;95956.44;5010573;28;20310;-87
2021/06/11 06:12:39;;;;;;;6.30;5.70;;;;;;;20.87;64.24;95954.25;5016988;28;20224;-87
2021/06/11 06:15:06;;;;;;;6.30;5.80;;;;;;;21.01;64.04;95962.63;5010489;28;20213;-85
2021/06/11 06:17:35;;;;;;;6.25;5.75;;;;;;;20.97;63.51;95954.44;5012927;28;20221;-86
2021/06/11 06:20:05;;;;;;;6.15;5.60;;;;;;;21.12;63.47;95955.78;5012921;28;20211;-87
2021/06/11 06:22:31;;;;;;;6.40;5.72;;;;;;;21.11;62.73;95957.59;5015135;28;20199;-87
2021/06/11 06:25:00;;;;;;;5.82;5.43;;;;;;;21.20;62.51;95956.22;5014308;28;20203;-88
2021/06/11 06:27:26;;;;;;;6.05;5.55;;;;;;;21.32;62.49;95953.56;5019128;28;20195;-87
2021/06/11 06:29:55;;;;;;;5.57;5.07;;;;;;;21.36;61.91;95957.28;5016543;28;20215;-86
2021/06/11 06:32:26;;;;;;;5.35;4.95;;;;;;;21.32;61.22;95957.00;5016969;28;20223;-88
2021/06/11 06:34:52;;;;;;;5.53;5.03;;;;;;;21.34;59.99;95960.16;5017531;28;20199;-86
2021/06/11 06:37:18;;;;;;;4.95;4.53;;;;;;;21.39;60.01;95956.81;5018392;28;20247;-86
2021/06/11 06:39:46;;;;;;;4.88;4.50;;;;;;;21.48;60.49;95958.03;5014409;28;20225;-84
2021/06/11 06:42:13;;;;;;;4.82;4.40;;;;;;;21.55;60.18;95958.69;5017698;28;20734;-86
2021/06/11 06:44:40;;;;;;;5.57;4.95;;;;;;;21.56;59.76;95964.72;5017893;28;20199;-86
2021/06/11 06:47:06;;;;;;;5.10;4.70;;;;;;;21.62;59.04;95956.72;5018439;28;20207;-88
2021/06/11 06:49:32;;;;;;;5.68;5.18;;;;;;;21.58;59.22;95952.97;5019028;28;20315;-85
2021/06/11 06:51:59;;;;;;;5.60;5.10;;;;;;;21.59;59.51;95957.19;5018611;28;20195;-85
2021/06/11 06:54:25;;;;;;;5.25;4.82;;;;;;;21.53;59.23;95954.72;5018115;28;20262;-88
2021/06/11 06:56:51;;;;;;;5.83;5.20;;;;;;;21.48;58.51;95944.16;5018205;28;20282;-88
2021/06/11 06:59:21;;;;;;;4.80;4.35;;;;;;;21.46;59.06;95944.38;5017871;28;20233;-87
2021/06/11 07:01:48;;;;;;;5.30;4.90;;;;;;;21.48;58.26;95947.56;5016457;28;20217;-85
2021/06/11 07:04:14;;;;;;;5.18;4.68;;;;;;;21.58;58.64;95941.69;5013789;28;20241;-86
2021/06/11 07:06:40;;;;;;;7.25;4.50;;;;;;;21.59;58.16;95943.28;5020128;28;20214;-86
2021/06/11 07:09:08;;;;;;;6.32;4.88;;;;;;;21.60;58.60;95945.66;5019403;28;20226;-86
2021/06/11 07:11:34;;;;;;;4.82;4.40;;;;;;;21.73;57.98;95947.22;5019822;28;20194;-86
2021/06/11 07:14:00;;;;;;;5.75;4.65;;;;;;;21.81;58.01;95951.25;5025727;28;20216;-86
2021/06/11 07:16:31;;;;;;;4.85;4.45;;;;;;;21.83;57.73;95952.59;5022472;28;20260;-88
2021/06/11 07:18:57;;;;;;;5.82;4.38;;;;;;;21.78;58.02;95946.47;5022899;28;20278;-86
2021/06/11 07:21:23;;;;;;;4.55;4.15;;;;;;;21.87;57.86;95955.56;5020332;28;20603;-86
2021/06/11 07:23:49;;;;;;;4.20;3.90;;;;;;;21.89;56.66;95953.50;5015178;28;20813;-86
2021/06/11 07:26:17;;;;;;;4.47;4.07;;;;;;;21.99;56.40;95954.44;5018384;28;20195;-87
2021/06/11 07:28:44;;;;;;;4.97;3.88;;;;;;;22.09;57.44;95959.09;5020618;28;20198;-87
2021/06/11 07:31:10;;;;;;;4.10;3.83;;;;;;;22.13;56.08;95960.16;5016083;28;20302;-87
2021/06/11 07:33:37;;;;;;;5.28;3.90;;;;;;;22.12;55.98;95955.97;5017942;28;20253;-88
2021/06/11 07:36:08;;;;;;;6.10;4.20;;;;;;;21.86;56.04;95951.34;5017934;28;20209;-86
2021/06/11 07:38:39;;;;;;;4.63;4.10;;;;;;;21.97;56.57;95953.06;5021000;28;20241;-88
2021/06/11 07:41:07;;;;;;;4.65;4.18;;;;;;;21.97;55.76;95955.69;5017251;28;20226;-88
2021/06/11 07:43:33;;;;;;;4.57;4.18;;;;;;;21.95;55.89;95953.31;5017122;28;20210;-88
2021/06/11 07:46:00;;;;;;;4.97;4.47;;;;;;;22.14;55.91;95955.72;5018709;28;20199;-86
2021/06/11 07:48:26;;;;;;;4.55;4.22;;;;;;;22.23;54.61;95949.84;5017051;28;20238;-87
2021/06/11 07:50:53;;;;;;;4.07;3.78;;;;;;;22.25;54.33;95955.66;5014840;28;20218;-89
2021/06/11 07:53:23;;;;;;;4.40;4.00;;;;;;;22.43;54.19;95957.22;5016889;28;20229;-87
2021/06/11 07:55:50;;;;;;;4.10;3.80;;;;;;;22.51;53.28;95948.13;5015483;28;20207;-87
2021/06/11 07:58:16;;;;;;;4.90;4.00;;;;;;;22.60;53.18;95944.84;5017714;28;20327;-88
2021/06/11 08:00:44;;;;;;;4.38;3.97;;;;;;;22.62;53.17;95945.38;5017297;28;20226;-86
2021/06/11 08:03:10;;;;;;;4.18;3.88;;;;;;;22.71;53.54;95945.75;5017946;28;20628;-87
2021/06/11 08:05:39;;;;;;;3.88;3.58;;;;;;;22.83;53.23;95948.31;5020646;28;20209;-88
2021/06/11 08:08:09;;;;;;;4.03;3.40;;;;;;;22.92;51.19;95942.38;5015804;28;20752;-88
2021/06/11 08:10:41;;;;;;;3.53;3.33;;;;;;;23.04;52.51;95956.19;5019910;28;20238;-88
2021/06/11 08:13:07;;;;;;;3.97;3.42;;;;;;;23.24;52.25;95946.94;5010984;28;20210;-87
2021/06/11 08:15:34;;;;;;;5.05;4.55;;;;;;;23.22;50.21;95939.28;5015224;28;20194;-86
2021/06/11 08:18:05;;;;;;;7.43;4.15;;;;;;;23.37;51.53;95949.94;5016625;28;20222;-86
2021/06/11 08:20:40;;;;;;;4.32;3.92;;;;;;;23.41;51.35;95945.78;5017301;28;20222;-88
2021/06/11 08:23:08;;;;;;;5.40;3.80;;;;;;;23.38;50.34;95946.28;5016327;28;20225;-86
2021/06/11 08:25:36;;;;;;;5.47;4.07;;;;;;;23.46;49.74;95942.44;5017766;28;20230;-87
2021/06/11 08:28:05;;;;;;;4.35;3.70;;;;;;;23.53;49.88;95940.41;5020725;28;20205;-86
2021/06/11 08:30:31;;;;;;;4.78;3.78;;;;;;;23.70;50.45;95946.34;5021085;28;20236;-85
2021/06/11 08:33:00;;;;;;;3.88;3.58;;;;;;;23.88;50.50;95947.00;5019422;28;20390;-89
2021/06/11 08:35:27;;;;;;;4.50;3.70;;;;;;;23.87;49.02;95938.31;5021028;28;20203;-87
2021/06/11 08:37:53;;;;;;;6.50;4.05;;;;;;;23.90;48.32;95937.03;5020465;28;20253;-87
2021/06/11 08:40:21;;;;;;;4.68;3.72;;;;;;;23.97;48.56;95935.78;5020391;28;20210;-87
2021/06/11 08:42:48;;;;;;;5.07;3.97;;;;;;;24.11;48.29;95941.41;5018626;28;20203;-88
2021/06/11 08:45:34;;;;;;;3.80;3.58;;;;;;;24.22;48.17;95943.06;5017570;28;20203;-88
2021/06/11 08:48:02;;;;;;;4.05;3.75;;;;;;;24.31;48.40;95935.50;5020010;28;20285;-89
2021/06/11 08:50:31;;;;;;;4.10;3.80;;;;;;;24.37;49.01;95945.03;5019403;28;20250;-87
2021/06/11 08:53:01;;;;;;;4.25;3.90;;;;;;;24.14;49.59;95945.38;5017551;28;20281;-87
2021/06/11 08:55:35;;;;;;;3.90;3.60;;;;;;;24.21;48.78;95935.41;5017998;28;20246;-88
2021/06/11 08:58:02;;;;;;;4.18;3.78;;;;;;;24.32;47.78;95939.72;5019509;28;20725;-87
2021/06/11 09:00:29;;;;;;;4.57;3.50;;;;;;;24.52;48.90;95945.09;5018632;28;20218;-87
2021/06/11 09:03:14;;;;;;;3.70;3.40;;;;;;;24.79;49.07;95944.97;5017474;28;20293;-89
2021/06/11 09:05:41;;;;;;;4.72;3.60;;;;;;;25.09;48.56;95946.97;5017569;28;20202;-87
2021/06/11 09:08:12;;;;;;;4.47;4.10;;;;;;;25.13;44.74;95943.56;5018555;28;20214;-87
2021/06/11 09:10:40;;;;;;;3.90;3.70;;;;;;;25.12;45.08;95946.44;5016628;28;20230;-87
2021/06/11 09:13:06;;;;;;;4.18;3.88;;;;;;;25.04;44.59;95946.94;5019814;28;20242;-88
2021/06/11 09:15:32;;;;;;;4.40;4.10;;;;;;;25.08;45.78;95943.53;5016832;28;20230;-86
2021/06/11 09:17:58;;;;;;;4.00;3.70;;;;;;;25.21;45.12;95952.00;5015841;28;20219;-88
2021/06/11 09:20:40;;;;;;;3.67;3.33;;;;;;;25.04;45.11;95947.72;5017271;28;20292;-88
2021/06/11 09:23:08;;;;;;;3.95;3.58;;;;;;;24.81;45.84;95945.53;5019327;28;20217;-87
2021/06/11 09:25:38;;;;;;;3.88;3.58;;;;;;;24.67;46.74;95945.19;5021780;28;20210;-87
2021/06/11 09:28:07;;;;;;;4.03;3.72;;;;;;;24.55;44.00;95946.44;5016939;28;20202;-87
2021/06/11 09:30:46;;;;;;;4.43;3.75;;;;;;;24.47;44.60;95945.06;5016441;28;20226;-88
2021/06/11 09:33:14;;;;;;;3.58;3.25;;;;;;;24.84;45.24;95937.09;5018939;28;20403;-87
2021/06/11 09:35:42;;;;;;;4.13;3.83;;;;;;;25.09;44.72;95942.47;5020020;28;20616;-86
2021/06/11 09:38:13;;;;;;;3.95;3.60;;;;;;;25.34;45.54;95946.25;5016448;28;20311;-87
2021/06/11 09:40:40;;;;;;;4.03;3.67;;;;;;;25.67;45.25;95951.06;5019074;28;20398;-88
2021/06/11 09:43:08;;;;;;;4.38;3.97;;;;;;;25.84;43.64;95950.00;5017606;28;20222;-87
2021/06/11 09:45:34;;;;;;;3.85;3.60;;;;;;;25.92;43.19;95955.56;5020514;28;20268;-85
2021/06/11 09:48:00;;;;;;;4.22;3.92;;;;;;;26.07;42.48;95947.63;5020344;28;20195;-86
2021/06/11 09:50:30;;;;;;;4.00;3.60;;;;;;;26.02;41.78;95941.56;5020581;28;20297;-87
2021/06/11 09:53:00;;;;;;;4.53;4.10;;;;;;;26.04;42.42;95939.44;5025972;28;20198;-87
2021/06/11 09:55:35;;;;;;;4.07;3.78;;;;;;;26.42;42.05;95935.47;5017500;28;20505;-88
2021/06/11 09:58:08;;;;;;;4.07;3.78;;;;;;;26.48;41.39;95934.41;5016843;28;20233;-87
2021/06/11 10:00:36;;;;;;;4.15;3.85;;;;;;;25.92;41.62;95933.66;5018746;28;20233;-87
2021/06/11 10:03:09;;;;;;;4.63;4.15;;;;;;;25.50;43.51;95939.16;5017989;28;20206;-87
2021/06/11 10:05:36;;;;;;;4.40;4.10;;;;;;;25.16;44.54;95933.53;5019318;28;20291;-87
2021/06/11 10:08:03;;;;;;;5.50;4.45;;;;;;;24.84;46.06;95941.56;5008626;28;20811;-87
2021/06/11 10:10:29;;;;;;;6.50;4.38;;;;;;;24.65;46.45;95943.84;5009539;28;20753;-86
2021/06/11 10:12:55;;;;;;;7.47;4.40;;;;;;;24.53;47.80;95948.53;5009433;28;20206;-86
2021/06/11 10:15:22;;;;;;;4.40;4.10;;;;;;;25.07;45.72;95944.56;5011267;28;20207;-89
2021/06/11 10:17:50;;;;;;;4.20;3.90;;;;;;;25.50;45.21;95939.94;5015301;28;20219;-87
2021/06/11 10:20:16;;;;;;;4.70;4.22;;;;;;;25.82;43.64;95939.72;5017993;28;20223;-86
2021/06/11 10:22:43;;;;;;;4.10;3.80;;;;;;;26.17;43.36;95938.13;5018277;28;20195;-87
2021/06/11 10:25:12;;;;;;;4.55;4.18;;;;;;;26.48;42.00;95935.19;5011473;28;20593;-86
2021/06/11 10:27:42;;;;;;;3.90;3.60;;;;;;;26.68;41.72;95936.19;5018836;28;20198;-86
2021/06/11 10:30:15;;;;;;;4.40;4.10;;;;;;;26.69;40.95;95932.50;5018197;28;20509;-88
2021/06/11 10:32:48;;;;;;;4.57;4.28;;;;;;;26.80;39.03;95932.19;5017985;28;20231;-87
2021/06/11 10:35:35;;;;;;;4.20;3.90;;;;;;;27.03;40.19;95936.09;5021107;28;20195;-86
2021/06/11 10:38:06;;;;;;;6.40;3.90;;;;;;;27.14;40.59;95929.66;5022476;28;20219;-87
2021/06/11 10:40:34;;;;;;;4.60;4.18;;;;;;;27.06;40.97;95932.09;5025060;28;20222;-87
2021/06/11 10:43:20;;;;;;;4.53;4.18;;;;;;;27.26;40.25;95931.22;5024369;28;20621;-87
2021/06/11 10:45:47;;;;;;;4.43;4.03;;;;;;;26.95;41.63;95931.34;5020300;28;20199;-87
2021/06/11 10:48:14;;;;;;;4.78;4.25;;;;;;;26.63;42.29;95925.63;5021172;28;20245;-86
2021/06/11 10:50:51;;;;;;;4.03;3.70;;;;;;;26.86;41.72;95925.03;5020209;28;20223;-86
2021/06/11 10:53:29;;;;;;;4.60;4.20;;;;;;;27.12;41.16;95925.75;5021084;28;20210;-86
2021/06/11 10:56:14;;;;;;;4.47;4.07;;;;;;;27.20;41.25;95911.13;5019488;28;20201;-86
2021/06/11 10:58:47;;;;;;;4.03;3.72;;;;;;;27.29;40.79;95912.16;5020004;28;20222;-87
2021/06/11 11:01:27;;;;;;;4.40;4.00;;;;;;;27.41;39.38;95908.09;5018834;28;20227;-86
2021/06/11 11:04:16;;;;;;;4.18;3.88;;;;;;;27.44;38.44;95904.91;5019497;28;20680;-86
2021/06/11 11:06:42;;;;;;;5.38;3.80;;;;;;;27.48;39.42;95913.88;5021347;28;20195;-85
2021/06/11 11:09:08;;;;;;;4.53;3.70;;;;;;;27.54;38.29;95909.31;5021120;28;20213;-86
2021/06/11 11:11:37;;;;;;;3.95;3.65;;;;;;;27.67;39.24;95897.38;5020843;28;20203;-85
2021/06/11 11:14:08;;;;;;;3.63;3.42;;;;;;;27.79;37.57;95900.44;5015068;28;20294;-81
2021/06/11 11:16:38;;;;;;;3.60;3.30;;;;;;;27.87;38.19;95904.34;5017230;28;20208;-87
2021/06/11 11:19:06;;;;;;;3.65;3.45;;;;;;;27.68;38.20;95901.59;5013491;28;20314;-88
2021/06/11 11:21:35;;;;;;;4.07;3.78;;;;;;;27.50;39.12;95892.44;5016055;28;20329;-87
2021/06/11 11:24:04;;;;;;;4.05;3.28;;;;;;;27.09;39.29;95894.56;5015578;28;20257;-88
2021/06/11 11:26:46;;;;;;;3.80;3.50;;;;;;;26.68;39.36;95896.56;5014407;28;20191;-87
2021/06/11 11:29:14;;;;;;;6.88;3.55;;;;;;;26.33;41.18;95903.56;5018374;28;20186;-87
2021/06/11 11:31:42;;;;;;;3.60;3.40;;;;;;;26.36;40.86;95889.78;5016505;28;20229;-88
2021/06/11 11:34:10;;;;;;;3.95;3.40;;;;;;;26.20;41.08;95890.84;5021357;28;20230;-87
2021/06/11 11:36:39;;;;;;;3.58;3.38;;;;;;;26.08;41.73;95896.44;5017933;28;20291;-86
2021/06/11 11:39:07;;;;;;;3.80;3.50;;;;;;;26.00;41.25;95894.31;5015737;28;20318;-88
2021/06/11 11:41:33;;;;;;;4.80;3.63;;;;;;;26.30;40.11;95892.72;5016161;28;20306;-87